sensor_id;sensor_type;location;lat;lon;timestamp;P1;durP1;ratioP1;P2;durP2;ratioP2
67717;SDS011;54511;47.532;19.180;2023-07-16T00:00:39;4.80;;;2.92;;
67717;SDS011;54511;47.532;19.180;2023-07-16T00:04:16;5.35;;;2.87;;
67717;SDS011;54511;47.532;19.180;2023-07-16T00:07:37;2.92;;;2.37;;
67717;SDS011;54511;47.532;19.180;2023-07-16T00:10:48;4.10;;;2.37;;
67717;SDS011;54511;47.532;19.180;2023-07-16T00:14:27;5.43;;;3.30;;
67717;SDS011;54511;47.532;19.180;2023-07-16T00:17:37;5.68;;;3.20;;
67717;SDS011;54511;47.532;19.180;2023-07-16T00:21:12;7.05;;;3.55;;
67717;SDS011;54511;47.532;19.180;2023-07-16T00:24:10;7.05;;;3.55;;
67717;SDS011;54511;47.532;19.180;2023-07-16T00:27:31;5.80;;;3.67;;
67717;SDS011;54511;47.532;19.180;2023-07-16T00:30:34;5.82;;;3.85;;
67717;SDS011;54511;47.532;19.180;2023-07-16T00:37:18;6.05;;;3.65;;
67717;SDS011;54511;47.532;19.180;2023-07-16T00:40:46;5.22;;;3.62;;
67717;SDS011;54511;47.532;19.180;2023-07-16T00:44:25;5.55;;;3.80;;
67717;SDS011;54511;47.532;19.180;2023-07-16T00:47:39;7.03;;;3.90;;
67717;SDS011;54511;47.532;19.180;2023-07-16T01:00:55;8.40;;;4.03;;
67717;SDS011;54511;47.532;19.180;2023-07-16T01:04:16;4.43;;;3.10;;
67717;SDS011;54511;47.532;19.180;2023-07-16T01:07:48;6.78;;;3.75;;
67717;SDS011;54511;47.532;19.180;2023-07-16T01:14:37;4.93;;;3.45;;
67717;SDS011;54511;47.532;19.180;2023-07-16T01:18:10;5.55;;;3.45;;
67717;SDS011;54511;47.532;19.180;2023-07-16T01:21:43;6.78;;;3.20;;
67717;SDS011;54511;47.532;19.180;2023-07-16T01:28:31;8.30;;;3.62;;
67717;SDS011;54511;47.532;19.180;2023-07-16T01:31:55;8.00;;;4.07;;
67717;SDS011;54511;47.532;19.180;2023-07-16T01:35:25;7.87;;;4.43;;
67717;SDS011;54511;47.532;19.180;2023-07-16T01:38:35;6.78;;;3.55;;
67717;SDS011;54511;47.532;19.180;2023-07-16T01:44:57;10.57;;;4.00;;
67717;SDS011;54511;47.532;19.180;2023-07-16T01:48:14;4.93;;;3.60;;
67717;SDS011;54511;47.532;19.180;2023-07-16T01:51:30;8.57;;;3.53;;
67717;SDS011;54511;47.532;19.180;2023-07-16T01:55:00;4.78;;;3.15;;
67717;SDS011;54511;47.532;19.180;2023-07-16T01:57:48;5.47;;;3.95;;
67717;SDS011;54511;47.532;19.180;2023-07-16T02:01:17;7.20;;;4.20;;
67717;SDS011;54511;47.532;19.180;2023-07-16T02:04:32;5.50;;;3.42;;
67717;SDS011;54511;47.532;19.180;2023-07-16T02:07:41;7.80;;;3.85;;
67717;SDS011;54511;47.532;19.180;2023-07-16T02:11:11;5.97;;;4.05;;
67717;SDS011;54511;47.532;19.180;2023-07-16T02:14:34;6.10;;;3.80;;
67717;SDS011;54511;47.532;19.180;2023-07-16T02:17:56;8.02;;;4.22;;
67717;SDS011;54511;47.532;19.180;2023-07-16T02:21:35;7.55;;;4.35;;
67717;SDS011;54511;47.532;19.180;2023-07-16T02:25:04;7.80;;;3.58;;
67717;SDS011;54511;47.532;19.180;2023-07-16T02:28:03;8.57;;;4.65;;
67717;SDS011;54511;47.532;19.180;2023-07-16T02:31:31;7.20;;;4.00;;
67717;SDS011;54511;47.532;19.180;2023-07-16T02:34:39;6.18;;;4.15;;
67717;SDS011;54511;47.532;19.180;2023-07-16T02:44:41;7.85;;;4.22;;
67717;SDS011;54511;47.532;19.180;2023-07-16T02:48:08;4.35;;;3.20;;
67717;SDS011;54511;47.532;19.180;2023-07-16T02:54:06;9.73;;;4.68;;
67717;SDS011;54511;47.532;19.180;2023-07-16T02:57:35;5.75;;;3.67;;
67717;SDS011;54511;47.532;19.180;2023-07-16T03:00:57;5.57;;;3.90;;
67717;SDS011;54511;47.532;19.180;2023-07-16T03:04:05;6.80;;;4.00;;
67717;SDS011;54511;47.532;19.180;2023-07-16T03:06:56;5.72;;;3.95;;
67717;SDS011;54511;47.532;19.180;2023-07-16T03:10:30;7.55;;;3.97;;
67717;SDS011;54511;47.532;19.180;2023-07-16T03:20:19;6.10;;;3.45;;
67717;SDS011;54511;47.532;19.180;2023-07-16T03:23:28;4.80;;;3.03;;
67717;SDS011;54511;47.532;19.180;2023-07-16T03:26:17;7.18;;;3.97;;
67717;SDS011;54511;47.532;19.180;2023-07-16T03:29:17;8.02;;;4.35;;
67717;SDS011;54511;47.532;19.180;2023-07-16T03:32:44;5.97;;;4.10;;
67717;SDS011;54511;47.532;19.180;2023-07-16T03:35:53;8.40;;;3.80;;
67717;SDS011;54511;47.532;19.180;2023-07-16T03:39:02;6.70;;;4.10;;
67717;SDS011;54511;47.532;19.180;2023-07-16T03:42:10;7.05;;;4.30;;
67717;SDS011;54511;47.532;19.180;2023-07-16T03:45:55;5.10;;;3.75;;
67717;SDS011;54511;47.532;19.180;2023-07-16T03:49:06;7.97;;;3.78;;
67717;SDS011;54511;47.532;19.180;2023-07-16T03:55:55;5.50;;;3.80;;
67717;SDS011;54511;47.532;19.180;2023-07-16T03:59:23;9.80;;;3.95;;
67717;SDS011;54511;47.532;19.180;2023-07-16T04:02:35;7.10;;;3.92;;
67717;SDS011;54511;47.532;19.180;2023-07-16T04:06:14;5.78;;;3.67;;
67717;SDS011;54511;47.532;19.180;2023-07-16T04:09:45;7.10;;;4.13;;
67717;SDS011;54511;47.532;19.180;2023-07-16T04:13:16;7.25;;;4.03;;
67717;SDS011;54511;47.532;19.180;2023-07-16T04:16:45;6.95;;;3.92;;
67717;SDS011;54511;47.532;19.180;2023-07-16T04:19:54;6.90;;;4.47;;
67717;SDS011;54511;47.532;19.180;2023-07-16T04:23:19;7.22;;;3.83;;
67717;SDS011;54511;47.532;19.180;2023-07-16T04:26:41;5.82;;;4.32;;
67717;SDS011;54511;47.532;19.180;2023-07-16T04:29:42;5.90;;;3.80;;
67717;SDS011;54511;47.532;19.180;2023-07-16T04:32:30;5.30;;;3.33;;
67717;SDS011;54511;47.532;19.180;2023-07-16T04:35:57;5.43;;;3.85;;
67717;SDS011;54511;47.532;19.180;2023-07-16T04:39:08;6.10;;;3.40;;
67717;SDS011;54511;47.532;19.180;2023-07-16T04:42:39;5.93;;;3.42;;
67717;SDS011;54511;47.532;19.180;2023-07-16T04:45:47;4.75;;;2.70;;
67717;SDS011;54511;47.532;19.180;2023-07-16T04:48:54;14.48;;;3.92;;
67717;SDS011;54511;47.532;19.180;2023-07-16T04:52:01;7.60;;;3.37;;
67717;SDS011;54511;47.532;19.180;2023-07-16T04:54:48;4.47;;;3.22;;
67717;SDS011;54511;47.532;19.180;2023-07-16T04:58:18;5.20;;;3.28;;
67717;SDS011;54511;47.532;19.180;2023-07-16T05:01:27;3.95;;;2.80;;
67717;SDS011;54511;47.532;19.180;2023-07-16T05:04:54;6.03;;;3.45;;
67717;SDS011;54511;47.532;19.180;2023-07-16T05:08:04;4.17;;;2.73;;
67717;SDS011;54511;47.532;19.180;2023-07-16T05:11:13;6.57;;;3.03;;
67717;SDS011;54511;47.532;19.180;2023-07-16T05:14:04;7.00;;;3.42;;
67717;SDS011;54511;47.532;19.180;2023-07-16T05:17:15;4.70;;;2.62;;
67717;SDS011;54511;47.532;19.180;2023-07-16T05:20:24;4.57;;;2.45;;
67717;SDS011;54511;47.532;19.180;2023-07-16T05:23:53;5.50;;;3.10;;
67717;SDS011;54511;47.532;19.180;2023-07-16T05:27:00;3.17;;;2.25;;
67717;SDS011;54511;47.532;19.180;2023-07-16T05:30:10;10.20;;;3.28;;
67717;SDS011;54511;47.532;19.180;2023-07-16T05:32:58;4.30;;;2.95;;
67717;SDS011;54511;47.532;19.180;2023-07-16T05:36:08;4.05;;;2.45;;
67717;SDS011;54511;47.532;19.180;2023-07-16T05:39:15;5.25;;;2.92;;
67717;SDS011;54511;47.532;19.180;2023-07-16T05:42:23;4.20;;;2.55;;
67717;SDS011;54511;47.532;19.180;2023-07-16T05:44:54;3.47;;;2.50;;
67717;SDS011;54511;47.532;19.180;2023-07-16T05:47:45;3.28;;;2.10;;
67717;SDS011;54511;47.532;19.180;2023-07-16T05:50:52;4.30;;;2.92;;
67717;SDS011;54511;47.532;19.180;2023-07-16T05:53:39;3.42;;;2.20;;
67717;SDS011;54511;47.532;19.180;2023-07-16T05:56:46;6.75;;;3.15;;
67717;SDS011;54511;47.532;19.180;2023-07-16T05:59:31;4.85;;;2.67;;
67717;SDS011;54511;47.532;19.180;2023-07-16T06:02:39;3.92;;;2.50;;
67717;SDS011;54511;47.532;19.180;2023-07-16T06:05:27;3.80;;;2.17;;
67717;SDS011;54511;47.532;19.180;2023-07-16T06:08:33;4.75;;;2.35;;
67717;SDS011;54511;47.532;19.180;2023-07-16T06:11:18;3.03;;;2.15;;
67717;SDS011;54511;47.532;19.180;2023-07-16T06:14:05;4.05;;;2.55;;
67717;SDS011;54511;47.532;19.180;2023-07-16T06:16:34;3.15;;;2.22;;
67717;SDS011;54511;47.532;19.180;2023-07-16T06:19:25;3.35;;;2.45;;
67717;SDS011;54511;47.532;19.180;2023-07-16T06:22:09;3.22;;;2.53;;
67717;SDS011;54511;47.532;19.180;2023-07-16T06:24:37;2.75;;;2.20;;
67717;SDS011;54511;47.532;19.180;2023-07-16T06:27:33;3.85;;;2.65;;
67717;SDS011;54511;47.532;19.180;2023-07-16T06:30:01;2.45;;;2.03;;
67717;SDS011;54511;47.532;19.180;2023-07-16T06:32:30;4.82;;;2.70;;
67717;SDS011;54511;47.532;19.180;2023-07-16T06:34:59;2.87;;;2.20;;
67717;SDS011;54511;47.532;19.180;2023-07-16T06:37:28;3.47;;;2.40;;
67717;SDS011;54511;47.532;19.180;2023-07-16T06:39:56;3.47;;;2.15;;
67717;SDS011;54511;47.532;19.180;2023-07-16T06:42:24;8.13;;;2.55;;
67717;SDS011;54511;47.532;19.180;2023-07-16T06:44:51;4.22;;;2.17;;
67717;SDS011;54511;47.532;19.180;2023-07-16T06:47:20;3.22;;;2.15;;
67717;SDS011;54511;47.532;19.180;2023-07-16T06:49:47;2.53;;;1.85;;
67717;SDS011;54511;47.532;19.180;2023-07-16T06:54:59;3.60;;;2.10;;
67717;SDS011;54511;47.532;19.180;2023-07-16T06:57:36;3.45;;;2.10;;
67717;SDS011;54511;47.532;19.180;2023-07-16T07:00:04;2.55;;;2.05;;
67717;SDS011;54511;47.532;19.180;2023-07-16T07:02:38;4.62;;;2.33;;
67717;SDS011;54511;47.532;19.180;2023-07-16T07:05:26;3.60;;;2.10;;
67717;SDS011;54511;47.532;19.180;2023-07-16T07:08:02;3.08;;;2.05;;
67717;SDS011;54511;47.532;19.180;2023-07-16T07:10:30;3.22;;;2.00;;
67717;SDS011;54511;47.532;19.180;2023-07-16T07:13:17;3.37;;;2.33;;
67717;SDS011;54511;47.532;19.180;2023-07-16T07:16:14;3.90;;;2.00;;
67717;SDS011;54511;47.532;19.180;2023-07-16T07:19:19;3.60;;;2.25;;
67717;SDS011;54511;47.532;19.180;2023-07-16T07:21:48;3.28;;;2.30;;
67717;SDS011;54511;47.532;19.180;2023-07-16T07:24:18;3.37;;;1.98;;
67717;SDS011;54511;47.532;19.180;2023-07-16T07:27:07;3.37;;;1.95;;
67717;SDS011;54511;47.532;19.180;2023-07-16T07:29:35;3.50;;;2.10;;
67717;SDS011;54511;47.532;19.180;2023-07-16T07:32:02;4.70;;;2.30;;
67717;SDS011;54511;47.532;19.180;2023-07-16T07:35:13;2.37;;;1.80;;
67717;SDS011;54511;47.532;19.180;2023-07-16T07:38:01;3.60;;;2.17;;
67717;SDS011;54511;47.532;19.180;2023-07-16T07:41:10;2.33;;;1.92;;
67717;SDS011;54511;47.532;19.180;2023-07-16T07:43:58;3.00;;;1.87;;
67717;SDS011;54511;47.532;19.180;2023-07-16T07:46:45;3.60;;;1.83;;
67717;SDS011;54511;47.532;19.180;2023-07-16T07:49:33;2.97;;;2.17;;
67717;SDS011;54511;47.532;19.180;2023-07-16T07:52:04;2.97;;;2.05;;
67717;SDS011;54511;47.532;19.180;2023-07-16T07:55:12;4.85;;;2.20;;
67717;SDS011;54511;47.532;19.180;2023-07-16T07:58:04;3.33;;;2.00;;
67717;SDS011;54511;47.532;19.180;2023-07-16T08:00:32;3.55;;;2.17;;
67717;SDS011;54511;47.532;19.180;2023-07-16T08:02:59;2.70;;;2.00;;
67717;SDS011;54511;47.532;19.180;2023-07-16T08:06:06;2.53;;;2.25;;
67717;SDS011;54511;47.532;19.180;2023-07-16T08:08:37;3.40;;;2.10;;
67717;SDS011;54511;47.532;19.180;2023-07-16T08:11:41;2.65;;;1.85;;
67717;SDS011;54511;47.532;19.180;2023-07-16T08:17:40;3.53;;;2.25;;
67717;SDS011;54511;47.532;19.180;2023-07-16T08:20:28;2.58;;;2.08;;
67717;SDS011;54511;47.532;19.180;2023-07-16T08:23:35;3.92;;;2.30;;
67717;SDS011;54511;47.532;19.180;2023-07-16T08:26:43;2.60;;;2.20;;
67717;SDS011;54511;47.532;19.180;2023-07-16T08:29:51;3.75;;;2.00;;
67717;SDS011;54511;47.532;19.180;2023-07-16T08:32:49;4.30;;;2.17;;
67717;SDS011;54511;47.532;19.180;2023-07-16T08:36:16;3.03;;;2.05;;
67717;SDS011;54511;47.532;19.180;2023-07-16T08:39:43;3.45;;;2.20;;
67717;SDS011;54511;47.532;19.180;2023-07-16T08:42:12;3.05;;;2.00;;
67717;SDS011;54511;47.532;19.180;2023-07-16T08:45:19;2.72;;;2.12;;
67717;SDS011;54511;47.532;19.180;2023-07-16T08:48:29;2.67;;;1.83;;
67717;SDS011;54511;47.532;19.180;2023-07-16T08:51:16;4.35;;;2.80;;
67717;SDS011;54511;47.532;19.180;2023-07-16T08:54:18;2.03;;;1.83;;
67717;SDS011;54511;47.532;19.180;2023-07-16T08:57:12;3.12;;;2.25;;
67717;SDS011;54511;47.532;19.180;2023-07-16T09:00:42;8.07;;;3.47;;
67717;SDS011;54511;47.532;19.180;2023-07-16T09:03:30;4.05;;;2.90;;
67717;SDS011;54511;47.532;19.180;2023-07-16T09:06:13;5.20;;;2.58;;
67717;SDS011;54511;47.532;19.180;2023-07-16T09:09:21;4.07;;;2.85;;
67717;SDS011;54511;47.532;19.180;2023-07-16T09:11:50;5.72;;;3.12;;
67717;SDS011;54511;47.532;19.180;2023-07-16T09:14:17;7.35;;;3.17;;
67717;SDS011;54511;47.532;19.180;2023-07-16T09:17:11;4.57;;;3.10;;
67717;SDS011;54511;47.532;19.180;2023-07-16T09:20:06;3.92;;;3.00;;
67717;SDS011;54511;47.532;19.180;2023-07-16T09:23:19;3.85;;;2.87;;
67717;SDS011;54511;47.532;19.180;2023-07-16T09:26:06;4.00;;;2.95;;
67717;SDS011;54511;47.532;19.180;2023-07-16T09:29:17;5.28;;;3.00;;
67717;SDS011;54511;47.532;19.180;2023-07-16T09:32:08;5.18;;;3.28;;
67717;SDS011;54511;47.532;19.180;2023-07-16T09:34:35;5.97;;;2.90;;
67717;SDS011;54511;47.532;19.180;2023-07-16T09:38:04;5.20;;;3.05;;
67717;SDS011;54511;47.532;19.180;2023-07-16T09:40:33;3.40;;;2.78;;
67717;SDS011;54511;47.532;19.180;2023-07-16T09:43:06;4.12;;;3.03;;
67717;SDS011;54511;47.532;19.180;2023-07-16T09:45:53;5.25;;;3.40;;
67717;SDS011;54511;47.532;19.180;2023-07-16T09:48:42;5.35;;;3.10;;
67717;SDS011;54511;47.532;19.180;2023-07-16T09:52:11;6.47;;;3.47;;
67717;SDS011;54511;47.532;19.180;2023-07-16T09:55:02;3.65;;;2.90;;
67717;SDS011;54511;47.532;19.180;2023-07-16T09:58:37;4.12;;;3.37;;
67717;SDS011;54511;47.532;19.180;2023-07-16T10:01:21;7.15;;;3.35;;
67717;SDS011;54511;47.532;19.180;2023-07-16T10:04:48;5.22;;;3.53;;
67717;SDS011;54511;47.532;19.180;2023-07-16T10:11:15;8.75;;;3.50;;
67717;SDS011;54511;47.532;19.180;2023-07-16T10:16:36;6.40;;;4.28;;
67717;SDS011;54511;47.532;19.180;2023-07-16T10:19:20;6.28;;;4.12;;
67717;SDS011;54511;47.532;19.180;2023-07-16T10:22:46;5.72;;;3.47;;
67717;SDS011;54511;47.532;19.180;2023-07-16T10:26:38;6.53;;;4.10;;
67717;SDS011;54511;47.532;19.180;2023-07-16T10:33:10;6.93;;;4.30;;
67717;SDS011;54511;47.532;19.180;2023-07-16T10:35:41;6.53;;;4.70;;
67717;SDS011;54511;47.532;19.180;2023-07-16T10:39:02;7.05;;;4.35;;
67717;SDS011;54511;47.532;19.180;2023-07-16T10:42:26;6.50;;;4.70;;
67717;SDS011;54511;47.532;19.180;2023-07-16T10:46:05;8.25;;;4.62;;
67717;SDS011;54511;47.532;19.180;2023-07-16T10:48:52;6.22;;;4.28;;
67717;SDS011;54511;47.532;19.180;2023-07-16T10:51:41;6.47;;;4.40;;
67717;SDS011;54511;47.532;19.180;2023-07-16T10:54:09;6.12;;;4.37;;
67717;SDS011;54511;47.532;19.180;2023-07-16T10:57:43;8.10;;;4.75;;
67717;SDS011;54511;47.532;19.180;2023-07-16T11:00:56;5.60;;;4.18;;
67717;SDS011;54511;47.532;19.180;2023-07-16T11:03:43;6.55;;;4.65;;
67717;SDS011;54511;47.532;19.180;2023-07-16T11:06:21;6.85;;;4.62;;
67717;SDS011;54511;47.532;19.180;2023-07-16T11:09:29;8.88;;;5.03;;
67717;SDS011;54511;47.532;19.180;2023-07-16T11:12:21;7.90;;;5.20;;
67717;SDS011;54511;47.532;19.180;2023-07-16T11:14:55;6.07;;;4.60;;
67717;SDS011;54511;47.532;19.180;2023-07-16T11:18:28;7.43;;;4.80;;
67717;SDS011;54511;47.532;19.180;2023-07-16T11:21:56;6.53;;;4.50;;
67717;SDS011;54511;47.532;19.180;2023-07-16T11:25:30;5.80;;;4.10;;
67717;SDS011;54511;47.532;19.180;2023-07-16T11:28:18;7.12;;;4.57;;
67717;SDS011;54511;47.532;19.180;2023-07-16T11:30:52;5.78;;;4.28;;
67717;SDS011;54511;47.532;19.180;2023-07-16T11:34:01;6.82;;;4.10;;
67717;SDS011;54511;47.532;19.180;2023-07-16T11:36:48;5.60;;;4.05;;
67717;SDS011;54511;47.532;19.180;2023-07-16T11:40:17;4.93;;;3.40;;
67717;SDS011;54511;47.532;19.180;2023-07-16T11:43:34;5.62;;;4.22;;
67717;SDS011;54511;47.532;19.180;2023-07-16T11:50:08;5.78;;;4.00;;
67717;SDS011;54511;47.532;19.180;2023-07-16T11:53:40;6.43;;;3.40;;
67717;SDS011;54511;47.532;19.180;2023-07-16T11:56:51;6.55;;;3.75;;
67717;SDS011;54511;47.532;19.180;2023-07-16T12:03:33;7.65;;;4.03;;
67717;SDS011;54511;47.532;19.180;2023-07-16T12:06:12;6.85;;;4.30;;
67717;SDS011;54511;47.532;19.180;2023-07-16T12:09:43;7.00;;;4.35;;
67717;SDS011;54511;47.532;19.180;2023-07-16T12:13:18;7.37;;;4.03;;
67717;SDS011;54511;47.532;19.180;2023-07-16T12:16:46;5.57;;;3.70;;
67717;SDS011;54511;47.532;19.180;2023-07-16T12:19:58;4.85;;;3.50;;
67717;SDS011;54511;47.532;19.180;2023-07-16T12:22:36;5.53;;;3.83;;
67717;SDS011;54511;47.532;19.180;2023-07-16T12:25:06;6.07;;;3.65;;
67717;SDS011;54511;47.532;19.180;2023-07-16T12:27:57;5.32;;;3.42;;
67717;SDS011;54511;47.532;19.180;2023-07-16T12:30:47;5.72;;;3.53;;
67717;SDS011;54511;47.532;19.180;2023-07-16T12:33:56;5.50;;;3.30;;
67717;SDS011;54511;47.532;19.180;2023-07-16T12:37:32;4.78;;;3.15;;
67717;SDS011;54511;47.532;19.180;2023-07-16T12:40:56;3.95;;;3.03;;
67717;SDS011;54511;47.532;19.180;2023-07-16T12:43:23;4.85;;;3.30;;
67717;SDS011;54511;47.532;19.180;2023-07-16T12:46:33;4.57;;;3.35;;
67717;SDS011;54511;47.532;19.180;2023-07-16T12:49:41;5.35;;;3.22;;
67717;SDS011;54511;47.532;19.180;2023-07-16T12:52:29;4.97;;;3.50;;
67717;SDS011;54511;47.532;19.180;2023-07-16T12:55:17;4.32;;;3.33;;
67717;SDS011;54511;47.532;19.180;2023-07-16T13:01:58;5.37;;;3.58;;
67717;SDS011;54511;47.532;19.180;2023-07-16T13:04:45;4.45;;;3.20;;
67717;SDS011;54511;47.532;19.180;2023-07-16T13:07:37;4.53;;;3.05;;
67717;SDS011;54511;47.532;19.180;2023-07-16T13:11:06;4.97;;;3.37;;
67717;SDS011;54511;47.532;19.180;2023-07-16T13:14:18;4.80;;;3.30;;
67717;SDS011;54511;47.532;19.180;2023-07-16T13:17:26;6.25;;;3.35;;
67717;SDS011;54511;47.532;19.180;2023-07-16T13:20:14;4.30;;;3.00;;
67717;SDS011;54511;47.532;19.180;2023-07-16T13:23:01;5.43;;;3.45;;
67717;SDS011;54511;47.532;19.180;2023-07-16T13:26:21;6.22;;;3.30;;
67717;SDS011;54511;47.532;19.180;2023-07-16T13:29:33;5.87;;;3.55;;
67717;SDS011;54511;47.532;19.180;2023-07-16T13:32:37;5.20;;;3.53;;
67717;SDS011;54511;47.532;19.180;2023-07-16T13:36:04;4.82;;;3.40;;
67717;SDS011;54511;47.532;19.180;2023-07-16T13:39:15;3.67;;;2.90;;
67717;SDS011;54511;47.532;19.180;2023-07-16T13:41:42;4.03;;;3.00;;
67717;SDS011;54511;47.532;19.180;2023-07-16T13:44:58;5.12;;;3.55;;
67717;SDS011;54511;47.532;19.180;2023-07-16T13:47:55;5.43;;;3.28;;
67717;SDS011;54511;47.532;19.180;2023-07-16T13:54:12;6.15;;;3.17;;
67717;SDS011;54511;47.532;19.180;2023-07-16T13:57:20;5.30;;;2.95;;
67717;SDS011;54511;47.532;19.180;2023-07-16T13:59:47;4.22;;;2.97;;
67717;SDS011;54511;47.532;19.180;2023-07-16T14:02:38;4.85;;;3.08;;
67717;SDS011;54511;47.532;19.180;2023-07-16T14:05:46;4.62;;;3.47;;
67717;SDS011;54511;47.532;19.180;2023-07-16T14:08:38;5.00;;;3.00;;
67717;SDS011;54511;47.532;19.180;2023-07-16T14:11:05;4.85;;;3.22;;
67717;SDS011;54511;47.532;19.180;2023-07-16T14:13:42;6.12;;;3.17;;
67717;SDS011;54511;47.532;19.180;2023-07-16T14:16:56;2.90;;;2.50;;
67717;SDS011;54511;47.532;19.180;2023-07-16T14:19:25;3.95;;;2.75;;
67717;SDS011;54511;47.532;19.180;2023-07-16T14:22:33;4.47;;;2.83;;
67717;SDS011;54511;47.532;19.180;2023-07-16T14:26:00;4.53;;;3.15;;
67717;SDS011;54511;47.532;19.180;2023-07-16T14:28:48;4.65;;;3.30;;
67717;SDS011;54511;47.532;19.180;2023-07-16T14:31:55;4.57;;;3.05;;
67717;SDS011;54511;47.532;19.180;2023-07-16T14:34:44;5.87;;;3.00;;
67717;SDS011;54511;47.532;19.180;2023-07-16T14:37:11;4.20;;;2.77;;
67717;SDS011;54511;47.532;19.180;2023-07-16T14:39:43;5.78;;;3.15;;
67717;SDS011;54511;47.532;19.180;2023-07-16T14:42:31;5.85;;;3.30;;
67717;SDS011;54511;47.532;19.180;2023-07-16T14:45:38;4.55;;;2.90;;
67717;SDS011;54511;47.532;19.180;2023-07-16T14:48:47;8.50;;;3.25;;
67717;SDS011;54511;47.532;19.180;2023-07-16T14:51:58;5.57;;;3.00;;
67717;SDS011;54511;47.532;19.180;2023-07-16T14:55:28;3.97;;;2.95;;
67717;SDS011;54511;47.532;19.180;2023-07-16T14:58:57;3.17;;;2.60;;
67717;SDS011;54511;47.532;19.180;2023-07-16T15:01:49;4.82;;;3.08;;
67717;SDS011;54511;47.532;19.180;2023-07-16T15:05:01;4.95;;;3.22;;
67717;SDS011;54511;47.532;19.180;2023-07-16T15:08:15;4.43;;;2.90;;
67717;SDS011;54511;47.532;19.180;2023-07-16T15:11:46;4.12;;;2.58;;
67717;SDS011;54511;47.532;19.180;2023-07-16T15:14:13;4.45;;;3.15;;
67717;SDS011;54511;47.532;19.180;2023-07-16T15:16:45;6.28;;;2.95;;
67717;SDS011;54511;47.532;19.180;2023-07-16T15:19:33;6.65;;;3.10;;
67717;SDS011;54511;47.532;19.180;2023-07-16T15:22:55;4.50;;;3.10;;
67717;SDS011;54511;47.532;19.180;2023-07-16T15:26:33;3.60;;;2.60;;
67717;SDS011;54511;47.532;19.180;2023-07-16T15:30:08;4.28;;;3.03;;
67717;SDS011;54511;47.532;19.180;2023-07-16T15:32:38;6.10;;;3.67;;
67717;SDS011;54511;47.532;19.180;2023-07-16T15:35:46;3.92;;;2.80;;
67717;SDS011;54511;47.532;19.180;2023-07-16T15:39:07;4.07;;;2.72;;
67717;SDS011;54511;47.532;19.180;2023-07-16T15:42:16;3.28;;;2.67;;
67717;SDS011;54511;47.532;19.180;2023-07-16T15:45:04;4.87;;;3.28;;
67717;SDS011;54511;47.532;19.180;2023-07-16T15:48:05;4.45;;;2.90;;
67717;SDS011;54511;47.532;19.180;2023-07-16T15:51:14;4.43;;;3.37;;
67717;SDS011;54511;47.532;19.180;2023-07-16T15:53:44;8.15;;;2.70;;
67717;SDS011;54511;47.532;19.180;2023-07-16T15:56:33;3.90;;;3.00;;
67717;SDS011;54511;47.532;19.180;2023-07-16T15:59:22;5.85;;;2.92;;
67717;SDS011;54511;47.532;19.180;2023-07-16T16:02:11;5.03;;;3.15;;
67717;SDS011;54511;47.532;19.180;2023-07-16T16:05:12;6.40;;;3.50;;
67717;SDS011;54511;47.532;19.180;2023-07-16T16:08:15;8.15;;;3.10;;
67717;SDS011;54511;47.532;19.180;2023-07-16T16:11:03;5.70;;;3.25;;
67717;SDS011;54511;47.532;19.180;2023-07-16T16:14:31;6.28;;;2.83;;
67717;SDS011;54511;47.532;19.180;2023-07-16T16:17:59;4.80;;;2.90;;
67717;SDS011;54511;47.532;19.180;2023-07-16T16:21:27;5.32;;;2.90;;
67717;SDS011;54511;47.532;19.180;2023-07-16T16:24:18;5.50;;;3.28;;
67717;SDS011;54511;47.532;19.180;2023-07-16T16:27:24;5.20;;;3.00;;
67717;SDS011;54511;47.532;19.180;2023-07-16T16:30:13;4.25;;;3.10;;
67717;SDS011;54511;47.532;19.180;2023-07-16T16:33:41;5.97;;;2.95;;
67717;SDS011;54511;47.532;19.180;2023-07-16T16:36:49;3.22;;;2.60;;
67717;SDS011;54511;47.532;19.180;2023-07-16T16:39:40;4.25;;;2.85;;
67717;SDS011;54511;47.532;19.180;2023-07-16T16:42:27;6.62;;;3.20;;
67717;SDS011;54511;47.532;19.180;2023-07-16T16:45:08;4.47;;;2.70;;
67717;SDS011;54511;47.532;19.180;2023-07-16T16:48:37;4.43;;;2.90;;
67717;SDS011;54511;47.532;19.180;2023-07-16T16:51:41;5.28;;;3.40;;
67717;SDS011;54511;47.532;19.180;2023-07-16T16:54:48;11.50;;;3.50;;
67717;SDS011;54511;47.532;19.180;2023-07-16T16:57:36;5.43;;;3.37;;
67717;SDS011;54511;47.532;19.180;2023-07-16T17:00:03;6.47;;;3.53;;
67717;SDS011;54511;47.532;19.180;2023-07-16T17:02:54;3.83;;;3.12;;
67717;SDS011;54511;47.532;19.180;2023-07-16T17:06:09;6.20;;;3.10;;
67717;SDS011;54511;47.532;19.180;2023-07-16T17:09:16;7.57;;;3.10;;
67717;SDS011;54511;47.532;19.180;2023-07-16T17:11:46;7.45;;;3.22;;
67717;SDS011;54511;47.532;19.180;2023-07-16T17:14:32;6.05;;;3.58;;
67717;SDS011;54511;47.532;19.180;2023-07-16T17:17:20;5.12;;;2.95;;
67717;SDS011;54511;47.532;19.180;2023-07-16T17:19:52;5.30;;;3.17;;
67717;SDS011;54511;47.532;19.180;2023-07-16T17:22:22;4.35;;;3.05;;
67717;SDS011;54511;47.532;19.180;2023-07-16T17:25:11;4.78;;;2.65;;
67717;SDS011;54511;47.532;19.180;2023-07-16T17:27:40;7.20;;;3.35;;
67717;SDS011;54511;47.532;19.180;2023-07-16T17:30:12;4.57;;;3.22;;
67717;SDS011;54511;47.532;19.180;2023-07-16T17:33:03;5.10;;;3.53;;
67717;SDS011;54511;47.532;19.180;2023-07-16T17:35:31;6.62;;;3.05;;
67717;SDS011;54511;47.532;19.180;2023-07-16T17:37:59;4.30;;;2.83;;
67717;SDS011;54511;47.532;19.180;2023-07-16T17:40:46;4.47;;;2.85;;
67717;SDS011;54511;47.532;19.180;2023-07-16T17:43:37;6.20;;;3.20;;
67717;SDS011;54511;47.532;19.180;2023-07-16T17:46:26;6.00;;;3.03;;
67717;SDS011;54511;47.532;19.180;2023-07-16T17:49:18;8.02;;;3.65;;
67717;SDS011;54511;47.532;19.180;2023-07-16T17:52:48;3.87;;;2.53;;
67717;SDS011;54511;47.532;19.180;2023-07-16T17:56:19;4.22;;;2.78;;
67717;SDS011;54511;47.532;19.180;2023-07-16T17:59:06;4.15;;;2.80;;
67717;SDS011;54511;47.532;19.180;2023-07-16T18:01:54;6.15;;;3.12;;
67717;SDS011;54511;47.532;19.180;2023-07-16T18:05:21;5.05;;;2.92;;
67717;SDS011;54511;47.532;19.180;2023-07-16T18:08:11;6.32;;;3.10;;
67717;SDS011;54511;47.532;19.180;2023-07-16T18:11:38;4.07;;;3.10;;
67717;SDS011;54511;47.532;19.180;2023-07-16T18:14:45;5.05;;;3.37;;
67717;SDS011;54511;47.532;19.180;2023-07-16T18:17:53;6.93;;;3.85;;
67717;SDS011;54511;47.532;19.180;2023-07-16T18:21:01;6.87;;;3.55;;
67717;SDS011;54511;47.532;19.180;2023-07-16T18:24:20;6.20;;;3.85;;
67717;SDS011;54511;47.532;19.180;2023-07-16T18:27:47;4.53;;;3.20;;
67717;SDS011;54511;47.532;19.180;2023-07-16T18:31:19;4.55;;;3.03;;
67717;SDS011;54511;47.532;19.180;2023-07-16T18:34:06;5.75;;;3.20;;
67717;SDS011;54511;47.532;19.180;2023-07-16T18:47:55;5.70;;;3.62;;
67717;SDS011;54511;47.532;19.180;2023-07-16T18:51:23;5.12;;;3.25;;
67717;SDS011;54511;47.532;19.180;2023-07-16T18:54:53;5.40;;;3.30;;
67717;SDS011;54511;47.532;19.180;2023-07-16T18:58:31;7.05;;;3.42;;
67717;SDS011;54511;47.532;19.180;2023-07-16T19:01:39;4.95;;;3.42;;
67717;SDS011;54511;47.532;19.180;2023-07-16T19:07:54;5.18;;;3.40;;
67717;SDS011;54511;47.532;19.180;2023-07-16T19:11:03;7.68;;;3.45;;
67717;SDS011;54511;47.532;19.180;2023-07-16T19:13:46;5.28;;;3.30;;
67717;SDS011;54511;47.532;19.180;2023-07-16T19:24:00;6.37;;;3.53;;
67717;SDS011;54511;47.532;19.180;2023-07-16T21:20:29;8.18;;;4.35;;
67717;SDS011;54511;47.532;19.180;2023-07-16T21:23:56;6.62;;;3.85;;
67717;SDS011;54511;47.532;19.180;2023-07-16T21:27:46;7.70;;;4.75;;